createdAt,value
2019-02-11T00:00:19.091Z,968.19
2019-02-11T00:01:19.273Z,968.19
2019-02-11T00:02:19.455Z,968.20
2019-02-11T00:03:19.631Z,968.23
2019-02-11T00:04:19.811Z,968.27
2019-02-11T00:05:19.992Z,968.27
2019-02-11T00:06:20.177Z,968.21
2019-02-11T00:07:20.362Z,968.32
2019-02-11T00:08:20.543Z,968.35
2019-02-11T00:09:20.724Z,968.39
2019-02-11T00:10:20.915Z,968.41
2019-02-11T00:11:21.102Z,968.46
2019-02-11T00:12:21.291Z,968.48
2019-02-11T00:13:21.477Z,968.46
2019-02-11T00:14:21.656Z,968.52
2019-02-11T00:15:21.892Z,968.55
2019-02-11T00:16:22.023Z,968.56
2019-02-11T00:17:22.222Z,968.58
2019-02-11T00:18:22.445Z,968.64
2019-02-11T00:19:22.623Z,968.66
2019-02-11T00:20:22.806Z,968.71
2019-02-11T00:21:22.994Z,968.75
2019-02-11T00:22:23.162Z,968.75
2019-02-11T00:23:23.350Z,968.80
2019-02-11T00:24:23.527Z,968.83
2019-02-11T00:25:23.725Z,968.91
2019-02-11T00:26:23.902Z,968.93
2019-02-11T00:27:24.122Z,968.99
2019-02-11T00:28:24.259Z,968.87
2019-02-11T00:29:24.431Z,969.01
2019-02-11T00:30:24.611Z,969.00
2019-02-11T00:31:24.849Z,969.11
2019-02-11T00:32:24.969Z,969.11
2019-02-11T00:33:25.153Z,969.13
2019-02-11T00:34:25.338Z,969.15
2019-02-11T00:35:25.515Z,969.18
2019-02-11T00:36:25.710Z,969.21
2019-02-11T00:37:25.889Z,969.19
2019-02-11T00:38:26.066Z,969.23
2019-02-11T00:39:26.251Z,969.22
2019-02-11T00:40:26.424Z,969.30
2019-02-11T00:41:26.615Z,969.26
2019-02-11T00:42:26.793Z,969.30
2019-02-11T00:43:26.972Z,969.36
2019-02-11T00:44:27.213Z,969.41
2019-02-11T00:45:27.333Z,969.43
2019-02-11T00:46:27.523Z,969.50
2019-02-11T00:47:27.696Z,969.48
2019-02-11T00:48:27.870Z,969.51
2019-02-11T00:49:28.064Z,969.60
2019-02-11T00:50:28.239Z,969.57
2019-02-11T00:51:28.425Z,969.63
2019-02-11T00:52:28.603Z,969.74
2019-02-11T00:53:28.783Z,969.73
2019-02-11T00:54:28.958Z,969.82
2019-02-11T00:55:29.140Z,969.82
2019-02-11T00:56:29.317Z,969.83
2019-02-11T00:57:29.499Z,969.92
2019-02-11T00:58:29.672Z,969.96
2019-02-11T00:59:29.870Z,969.99
2019-02-11T01:00:30.098Z,970.09
2019-02-11T01:01:30.224Z,970.07
2019-02-11T01:02:30.404Z,970.12
2019-02-11T01:03:30.584Z,970.14
2019-02-11T01:04:30.752Z,970.15
2019-02-11T01:05:30.928Z,970.21
2019-02-11T01:06:31.111Z,970.19
2019-02-11T01:07:31.288Z,970.25
2019-02-11T01:08:31.471Z,970.32
2019-02-11T01:09:31.652Z,970.32
2019-02-11T01:10:31.830Z,970.33
2019-02-11T01:11:32.004Z,970.34
2019-02-11T01:12:32.179Z,970.38
2019-02-11T01:13:32.362Z,970.36
2019-02-11T01:14:32.536Z,970.42
2019-02-11T01:15:32.721Z,970.41
2019-02-11T01:16:32.909Z,970.42
2019-02-11T01:17:33.087Z,970.50
2019-02-11T01:18:33.272Z,970.49
2019-02-11T01:19:33.445Z,970.57
2019-02-11T01:20:33.615Z,970.56
2019-02-11T01:21:33.817Z,970.62
2019-02-11T01:22:33.998Z,970.66
2019-02-11T01:23:34.179Z,970.69
2019-02-11T01:24:34.358Z,970.73
2019-02-11T01:25:34.540Z,970.71
2019-02-11T01:26:34.732Z,970.78
2019-02-11T01:27:34.929Z,970.79
2019-02-11T01:28:35.090Z,970.77
2019-02-11T01:29:35.270Z,970.81
2019-02-11T01:30:35.454Z,970.80
2019-02-11T01:31:35.632Z,970.79
2019-02-11T01:32:35.804Z,970.85
2019-02-11T01:33:35.985Z,970.81
2019-02-11T01:34:36.166Z,970.90
2019-02-11T01:35:36.342Z,970.92
2019-02-11T01:36:36.524Z,970.96
2019-02-11T01:37:36.702Z,970.92
2019-02-11T01:38:36.873Z,970.97
2019-02-11T01:39:37.053Z,971.00
2019-02-11T01:40:37.236Z,971.00
2019-02-11T01:41:37.423Z,971.05
2019-02-11T01:42:37.585Z,971.08
2019-02-11T01:43:37.771Z,971.08
2019-02-11T01:44:37.950Z,971.14
2019-02-11T01:45:38.140Z,971.13
2019-02-11T01:46:38.319Z,971.16
2019-02-11T01:47:38.508Z,971.21
2019-02-11T01:48:38.697Z,971.24
2019-02-11T01:49:38.867Z,971.26
2019-02-11T01:50:39.056Z,971.31
2019-02-11T01:51:39.233Z,971.36
2019-02-11T01:52:39.408Z,971.32
2019-02-11T01:53:39.593Z,971.36
2019-02-11T01:54:39.766Z,971.38
2019-02-11T01:55:39.947Z,971.43
2019-02-11T01:56:40.131Z,971.42
2019-02-11T01:57:40.305Z,971.38
2019-02-11T01:58:40.477Z,971.41
2019-02-11T01:59:40.674Z,971.44
2019-02-11T02:00:40.848Z,971.44
2019-02-11T02:01:41.069Z,971.51
2019-02-11T02:02:41.221Z,971.57
2019-02-11T02:03:41.404Z,971.65
2019-02-11T02:04:41.583Z,971.60
2019-02-11T02:05:41.762Z,971.66
2019-02-11T02:06:41.944Z,971.74
2019-02-11T02:07:42.127Z,971.74
2019-02-11T02:08:42.372Z,971.78
2019-02-11T02:09:42.427Z,971.83
2019-02-11T02:10:42.603Z,971.96
2019-02-11T02:11:42.792Z,971.97
2019-02-11T02:12:43.787Z,971.94
2019-02-11T02:13:44.909Z,972.01
2019-02-11T02:14:43.345Z,972.01
2019-02-11T02:15:43.524Z,971.93
2019-02-11T02:16:43.704Z,971.98
2019-02-11T02:17:43.886Z,972.00
2019-02-11T02:18:44.063Z,972.01
2019-02-11T02:19:44.260Z,972.06
2019-02-11T02:20:44.451Z,972.05
2019-02-11T02:21:44.605Z,972.03
2019-02-11T02:22:44.774Z,972.09
2019-02-11T02:23:44.957Z,972.13
2019-02-11T02:24:45.142Z,972.11
2019-02-11T02:25:45.324Z,972.07
2019-02-11T02:26:45.553Z,972.07
2019-02-11T02:27:45.682Z,972.13
2019-02-11T02:28:45.867Z,972.18
2019-02-11T02:29:46.041Z,972.11
2019-02-11T02:30:46.225Z,972.16
2019-02-11T02:31:46.416Z,972.17
2019-02-11T02:32:46.589Z,972.17
2019-02-11T02:33:46.769Z,972.21
2019-02-11T02:34:46.944Z,972.22
2019-02-11T02:35:47.133Z,972.30
2019-02-11T02:36:47.314Z,972.29
2019-02-11T02:37:47.487Z,972.28
2019-02-11T02:38:47.669Z,972.36
2019-02-11T02:39:47.851Z,972.40
2019-02-11T02:40:48.028Z,972.30
2019-02-11T02:41:48.210Z,972.39
2019-02-11T02:42:48.392Z,972.41
2019-02-11T02:43:55.129Z,972.42
2019-02-11T02:44:48.751Z,972.43
2019-02-11T02:45:48.932Z,972.47
2019-02-11T02:46:49.112Z,972.46
2019-02-11T02:47:49.289Z,972.52
2019-02-11T02:48:49.475Z,972.58
2019-02-11T02:49:49.660Z,972.56
2019-02-11T02:50:49.829Z,972.60
2019-02-11T02:51:50.011Z,972.54
2019-02-11T02:52:50.195Z,972.62
2019-02-11T02:53:50.374Z,972.60
2019-02-11T02:54:50.560Z,972.69
2019-02-11T02:55:50.742Z,972.70
2019-02-11T02:56:50.923Z,972.70
2019-02-11T02:57:51.101Z,972.73
2019-02-11T02:58:51.284Z,972.77
2019-02-11T02:59:51.462Z,972.83
2019-02-11T03:00:51.637Z,972.84
2019-02-11T03:01:51.823Z,972.88
2019-02-11T03:02:51.999Z,972.93
2019-02-11T03:03:52.193Z,972.93
2019-02-11T03:04:52.371Z,973.00
2019-02-11T03:05:53.102Z,972.98
2019-02-11T03:06:52.734Z,972.99
2019-02-11T03:07:52.912Z,972.98
2019-02-11T03:08:53.101Z,973.00
2019-02-11T03:09:53.272Z,973.07
2019-02-11T03:10:53.457Z,973.07
2019-02-11T03:11:53.658Z,973.06
2019-02-11T03:12:53.840Z,973.13
2019-02-11T03:13:54.025Z,973.18
2019-02-11T03:14:54.194Z,973.15
2019-02-11T03:15:54.379Z,973.18
2019-02-11T03:16:54.573Z,973.16
2019-02-11T03:17:54.747Z,973.16
2019-02-11T03:18:54.929Z,973.20
2019-02-11T03:19:55.111Z,973.20
2019-02-11T03:20:55.293Z,973.29
2019-02-11T03:21:55.469Z,973.34
2019-02-11T03:22:55.650Z,973.36
2019-02-11T03:23:55.835Z,973.39
2019-02-11T03:24:56.009Z,973.40
2019-02-11T03:25:56.201Z,973.37
2019-02-11T03:26:56.381Z,973.36
2019-02-11T03:27:56.568Z,973.40
2019-02-11T03:28:56.740Z,973.49
2019-02-11T03:29:56.918Z,973.47
2019-02-11T03:30:57.145Z,973.51
2019-02-11T03:31:59.846Z,973.54
2019-02-11T03:32:57.463Z,973.50
2019-02-11T03:33:57.646Z,973.58
2019-02-11T03:34:57.824Z,973.62
2019-02-11T03:35:58.002Z,973.64
2019-02-11T03:36:58.183Z,973.64
2019-02-11T03:37:58.367Z,973.56
2019-02-11T03:38:58.551Z,973.63
2019-02-11T03:39:58.729Z,973.74
2019-02-11T03:40:58.913Z,973.69
2019-02-11T03:41:59.102Z,973.69
2019-02-11T03:42:59.281Z,973.70
2019-02-11T03:43:59.457Z,973.77
2019-02-11T03:44:59.644Z,973.81
2019-02-11T03:45:59.819Z,973.79
2019-02-11T03:47:00.002Z,973.88
2019-02-11T03:48:00.184Z,973.86
2019-02-11T03:49:00.361Z,973.91
2019-02-11T03:50:00.545Z,973.90
2019-02-11T03:51:00.722Z,973.99
2019-02-11T03:52:00.909Z,973.94
2019-02-11T03:53:01.081Z,973.94
2019-02-11T03:54:01.266Z,973.97
2019-02-11T03:55:01.457Z,973.97
2019-02-11T03:56:01.619Z,974.03
2019-02-11T03:57:01.817Z,974.08
2019-02-11T03:58:01.993Z,974.14
2019-02-11T03:59:02.174Z,974.14
2019-02-11T04:00:02.354Z,974.17
2019-02-11T04:01:02.600Z,974.21
2019-02-11T04:02:02.724Z,974.22
2019-02-11T04:03:02.910Z,974.21
2019-02-11T04:04:03.074Z,974.23
2019-02-11T04:05:03.264Z,974.32
2019-02-11T04:06:03.437Z,974.24
2019-02-11T04:07:03.619Z,974.29
2019-02-11T04:08:03.794Z,974.30
2019-02-11T04:09:03.985Z,974.32
2019-02-11T04:10:04.166Z,974.32
2019-02-11T04:11:04.337Z,974.36
2019-02-11T04:12:04.515Z,974.41
2019-02-11T04:13:04.703Z,974.46
2019-02-11T04:14:04.881Z,974.51
2019-02-11T04:15:05.062Z,974.51
2019-02-11T04:16:05.247Z,974.56
2019-02-11T04:17:05.423Z,974.54
2019-02-11T04:18:05.606Z,974.58
2019-02-11T04:19:05.786Z,974.50
2019-02-11T04:20:05.969Z,974.53
2019-02-11T04:21:06.159Z,974.54
2019-02-11T04:22:06.336Z,974.56
2019-02-11T04:23:06.513Z,974.63
2019-02-11T04:24:06.698Z,974.68
2019-02-11T04:25:06.892Z,974.67
2019-02-11T04:26:07.066Z,974.67
2019-02-11T04:27:07.245Z,974.74
2019-02-11T04:28:07.445Z,974.74
2019-02-11T04:29:07.613Z,974.75
2019-02-11T04:30:07.793Z,974.77
2019-02-11T04:31:07.977Z,974.78
2019-02-11T04:32:08.160Z,974.78
2019-02-11T04:33:08.349Z,974.79
2019-02-11T04:34:08.528Z,974.81
2019-02-11T04:35:08.713Z,974.86
2019-02-11T04:36:08.899Z,974.89
2019-02-11T04:37:09.080Z,974.87
2019-02-11T04:38:09.257Z,974.91
2019-02-11T04:39:09.434Z,974.98
2019-02-11T04:40:09.687Z,974.98
2019-02-11T04:41:09.761Z,974.96
2019-02-11T04:42:09.947Z,975.05
2019-02-11T04:43:10.128Z,975.06
2019-02-11T04:44:10.308Z,975.06
2019-02-11T04:45:10.484Z,975.05
2019-02-11T04:46:10.675Z,975.07
2019-02-11T04:47:10.859Z,975.08
2019-02-11T04:48:11.033Z,975.12
2019-02-11T04:49:11.222Z,975.13
2019-02-11T04:50:11.397Z,975.21
2019-02-11T04:51:11.585Z,975.25
2019-02-11T04:52:11.753Z,975.21
2019-02-11T04:53:11.935Z,975.24
2019-02-11T04:54:12.124Z,975.23
2019-02-11T04:55:12.305Z,975.24
2019-02-11T04:56:12.482Z,975.29
2019-02-11T04:57:12.669Z,975.29
2019-02-11T04:58:12.840Z,975.34
2019-02-11T04:59:13.033Z,975.39
2019-02-11T05:00:13.228Z,975.38
2019-02-11T05:01:13.398Z,975.32
2019-02-11T05:02:13.579Z,975.37
2019-02-11T05:03:13.755Z,975.37
2019-02-11T05:04:13.934Z,975.39
2019-02-11T05:05:14.121Z,975.41
2019-02-11T05:06:14.312Z,975.44
2019-02-11T05:07:14.519Z,975.43
2019-02-11T05:08:14.726Z,975.43
2019-02-11T05:09:14.913Z,975.46
2019-02-11T05:10:15.089Z,975.43
2019-02-11T05:11:15.258Z,975.46
2019-02-11T05:12:15.441Z,975.47
2019-02-11T05:13:15.616Z,975.48
2019-02-11T05:14:15.794Z,975.57
2019-02-11T05:15:15.979Z,975.58
2019-02-11T05:16:16.156Z,975.53
2019-02-11T05:17:16.340Z,975.58
2019-02-11T05:18:16.986Z,975.61
2019-02-11T05:19:16.694Z,975.59
2019-02-11T05:20:16.885Z,975.63
2019-02-11T05:21:17.050Z,975.62
2019-02-11T05:22:17.236Z,975.63
2019-02-11T05:23:17.429Z,975.66
2019-02-11T05:24:17.609Z,975.67
2019-02-11T05:25:17.796Z,975.69
2019-02-11T05:26:17.975Z,975.71
2019-02-11T05:27:18.154Z,975.70
2019-02-11T05:28:18.335Z,975.76
2019-02-11T05:29:18.516Z,975.75
2019-02-11T05:30:18.732Z,975.80
2019-02-11T05:31:18.900Z,975.79
2019-02-11T05:32:19.087Z,975.79
2019-02-11T05:33:19.280Z,975.79
2019-02-11T05:34:19.469Z,975.83
2019-02-11T05:35:19.645Z,975.86
2019-02-11T05:36:19.830Z,975.86
2019-02-11T05:37:20.007Z,975.93
2019-02-11T05:38:20.189Z,975.95
2019-02-11T05:39:20.373Z,975.92
2019-02-11T05:40:20.553Z,975.96
2019-02-11T05:41:20.740Z,975.99
2019-02-11T05:42:20.917Z,975.97
2019-02-11T05:43:21.093Z,975.99
2019-02-11T05:44:21.271Z,976.04
2019-02-11T05:45:21.447Z,976.06
2019-02-11T05:46:21.621Z,976.12
2019-02-11T05:47:21.794Z,976.12
2019-02-11T05:48:21.975Z,976.17
2019-02-11T05:49:22.166Z,976.17
2019-02-11T05:50:22.350Z,976.18
2019-02-11T05:51:22.523Z,976.18
2019-02-11T05:52:22.703Z,976.21
2019-02-11T05:53:22.886Z,976.24
2019-02-11T05:54:23.062Z,976.20
2019-02-11T05:55:23.979Z,976.18
2019-02-11T05:56:23.449Z,976.26
2019-02-11T05:57:23.627Z,976.26
2019-02-11T05:58:23.810Z,976.31
2019-02-11T05:59:23.990Z,976.31
2019-02-11T06:00:24.169Z,976.37
2019-02-11T06:01:24.349Z,976.38
2019-02-11T06:02:24.530Z,976.39
2019-02-11T06:03:24.717Z,976.36
2019-02-11T06:04:24.899Z,976.40
2019-02-11T06:05:25.095Z,976.47
2019-02-11T06:06:25.258Z,976.53
2019-02-11T06:07:25.436Z,976.57
2019-02-11T06:08:25.614Z,976.57
2019-02-11T06:09:25.795Z,976.58
2019-02-11T06:10:25.975Z,976.61
2019-02-11T06:11:26.158Z,976.58
2019-02-11T06:12:26.340Z,976.63
2019-02-11T06:13:26.513Z,976.66
2019-02-11T06:14:26.742Z,976.65
2019-02-11T06:15:26.946Z,976.71
2019-02-11T06:16:27.115Z,976.70
2019-02-11T06:17:27.317Z,976.75
2019-02-11T06:18:27.485Z,976.81
2019-02-11T06:19:27.684Z,976.90
2019-02-11T06:20:27.865Z,976.93
2019-02-11T06:21:28.040Z,976.92
2019-02-11T06:22:28.215Z,976.90
2019-02-11T06:23:29.697Z,976.89
2019-02-11T06:24:28.586Z,976.94
2019-02-11T06:25:28.789Z,976.90
2019-02-11T06:26:28.946Z,976.90
2019-02-11T06:27:29.135Z,976.94
2019-02-11T06:28:29.329Z,976.96
2019-02-11T06:29:29.513Z,976.96
2019-02-11T06:30:29.694Z,977.02
2019-02-11T06:31:29.900Z,977.02
2019-02-11T06:32:30.092Z,977.06
2019-02-11T06:33:30.253Z,977.04
2019-02-11T06:34:30.449Z,977.15
2019-02-11T06:35:30.609Z,977.15
2019-02-11T06:36:30.790Z,977.21
2019-02-11T06:37:30.974Z,977.25
2019-02-11T06:38:31.162Z,977.26
2019-02-11T06:39:31.347Z,977.33
2019-02-11T06:40:31.519Z,977.27
2019-02-11T06:41:31.707Z,977.35
2019-02-11T06:42:31.878Z,977.35
2019-02-11T06:43:32.088Z,977.41
2019-02-11T06:44:32.276Z,977.47
2019-02-11T06:45:32.476Z,977.50
2019-02-11T06:46:32.644Z,977.56
2019-02-11T06:47:32.832Z,977.58
2019-02-11T06:48:33.017Z,977.63
2019-02-11T06:49:33.202Z,977.64
2019-02-11T06:50:33.398Z,977.65
2019-02-11T06:51:33.554Z,977.65
2019-02-11T06:52:33.745Z,977.68
2019-02-11T06:53:33.925Z,977.75
2019-02-11T06:54:34.105Z,977.76
2019-02-11T06:55:34.289Z,977.83
2019-02-11T06:56:34.472Z,977.85
2019-02-11T06:57:34.663Z,977.92
2019-02-11T06:58:34.846Z,977.93
2019-02-11T06:59:35.038Z,977.93
2019-02-11T07:00:35.210Z,977.91
2019-02-11T07:01:35.405Z,977.95
2019-02-11T07:02:35.631Z,977.95
2019-02-11T07:03:35.846Z,977.94
2019-02-11T07:04:36.005Z,978.04
2019-02-11T07:05:36.195Z,978.06
2019-02-11T07:06:36.375Z,978.02
2019-02-11T07:07:36.794Z,978.06
2019-02-11T07:08:36.745Z,978.11
2019-02-11T07:09:36.930Z,978.03
2019-02-11T07:10:37.118Z,978.04
2019-02-11T07:11:37.291Z,978.06
2019-02-11T07:12:37.478Z,978.03
2019-02-11T07:13:37.657Z,978.14
2019-02-11T07:14:37.842Z,978.11
2019-02-11T07:15:38.030Z,978.19
2019-02-11T07:16:38.206Z,978.13
2019-02-11T07:17:38.394Z,978.13
2019-02-11T07:18:38.572Z,978.14
2019-02-11T07:19:38.750Z,978.21
2019-02-11T07:20:38.935Z,978.21
2019-02-11T07:21:39.119Z,978.25
2019-02-11T07:22:39.304Z,978.29
2019-02-11T07:23:39.486Z,978.26
2019-02-11T07:24:39.668Z,978.32
2019-02-11T07:25:39.845Z,978.35
2019-02-11T07:26:40.025Z,978.33
2019-02-11T07:27:40.211Z,978.34
2019-02-11T07:28:40.398Z,978.41
2019-02-11T07:29:40.577Z,978.41
2019-02-11T07:30:40.763Z,978.46
2019-02-11T07:31:40.937Z,978.49
2019-02-11T07:32:41.122Z,978.48
2019-02-11T07:33:41.301Z,978.53
2019-02-11T07:34:41.481Z,978.56
2019-02-11T07:35:41.662Z,978.59
2019-02-11T07:36:41.857Z,978.66
2019-02-11T07:37:42.050Z,978.66
2019-02-11T07:38:42.216Z,978.75
2019-02-11T07:39:42.398Z,978.74
2019-02-11T07:40:42.585Z,978.70
2019-02-11T07:41:42.765Z,978.69
2019-02-11T07:42:42.944Z,978.80
2019-02-11T07:43:43.125Z,978.79
2019-02-11T07:44:43.315Z,978.85
2019-02-11T07:45:43.495Z,978.83
2019-02-11T07:46:43.674Z,978.84
2019-02-11T07:47:43.849Z,978.88
2019-02-11T07:48:44.044Z,978.91
2019-02-11T07:49:44.227Z,978.91
2019-02-11T07:50:44.396Z,978.91
2019-02-11T07:51:44.578Z,978.98
2019-02-11T07:52:44.779Z,978.98
2019-02-11T07:53:44.962Z,979.02
2019-02-11T07:54:45.143Z,978.98
2019-02-11T07:55:45.368Z,979.08
2019-02-11T07:56:45.515Z,979.01
2019-02-11T07:57:45.697Z,979.12
2019-02-11T07:58:45.880Z,979.20
2019-02-11T07:59:46.115Z,979.26
2019-02-11T08:00:46.242Z,979.24
2019-02-11T08:01:46.423Z,979.29
2019-02-11T08:02:46.605Z,979.32
2019-02-11T08:03:46.789Z,979.34
2019-02-11T08:04:46.970Z,979.39
2019-02-11T08:05:47.156Z,979.36
2019-02-11T08:06:47.333Z,979.34
2019-02-11T08:07:47.513Z,979.38
2019-02-11T08:08:47.690Z,979.45
2019-02-11T08:09:47.877Z,979.57
2019-02-11T08:10:48.060Z,979.55
2019-02-11T08:11:48.249Z,979.60
2019-02-11T08:12:48.435Z,979.66
2019-02-11T08:13:48.621Z,979.73
2019-02-11T08:14:48.806Z,979.66
2019-02-11T08:15:48.999Z,979.76
2019-02-11T08:16:49.182Z,979.80
2019-02-11T08:17:49.368Z,979.69
2019-02-11T08:18:49.553Z,979.82
2019-02-11T08:19:50.063Z,979.96
2019-02-11T08:20:49.920Z,979.90
2019-02-11T08:21:50.115Z,979.95
2019-02-11T08:22:50.300Z,979.86
2019-02-11T08:23:50.484Z,979.88
2019-02-11T08:24:50.673Z,980.02
2019-02-11T08:25:50.861Z,980.04
2019-02-11T08:26:51.355Z,980.03
2019-02-11T08:27:51.282Z,980.07
2019-02-11T08:28:51.475Z,980.04
2019-02-11T08:29:51.664Z,980.06
2019-02-11T08:30:51.863Z,980.06
2019-02-11T08:31:52.052Z,980.15
2019-02-11T08:32:52.233Z,980.10
2019-02-11T08:33:52.431Z,980.17
2019-02-11T08:34:52.624Z,980.24
2019-02-11T08:35:52.818Z,980.21
2019-02-11T08:36:53.014Z,980.22
2019-02-11T08:37:53.195Z,980.29
2019-02-11T08:38:53.390Z,980.34
2019-02-11T08:39:53.578Z,980.57
2019-02-11T08:40:53.758Z,980.47
2019-02-11T08:41:53.948Z,980.27
2019-02-11T08:42:54.135Z,980.28
2019-02-11T08:43:54.324Z,980.31
2019-02-11T08:44:54.514Z,980.51
2019-02-11T08:45:54.707Z,980.48
2019-02-11T08:46:54.919Z,980.64
2019-02-11T08:47:55.089Z,980.73
2019-02-11T08:48:55.283Z,980.70
2019-02-11T08:49:55.480Z,980.83
2019-02-11T08:50:55.663Z,980.85
2019-02-11T08:51:55.856Z,980.79
2019-02-11T08:52:56.046Z,980.67
2019-02-11T08:53:56.240Z,980.89
2019-02-11T08:54:56.429Z,980.78
2019-02-11T08:55:56.618Z,980.63
2019-02-11T08:56:57.506Z,980.62
2019-02-11T08:57:57.009Z,980.61
2019-02-11T08:58:57.193Z,980.55
2019-02-11T08:59:57.382Z,980.55
2019-02-11T09:00:57.579Z,980.56
2019-02-11T09:01:57.762Z,980.56
2019-02-11T09:02:57.950Z,980.60
2019-02-11T09:03:58.143Z,980.56
2019-02-11T09:04:58.330Z,980.59
2019-02-11T09:05:58.518Z,980.61
2019-02-11T09:06:58.708Z,980.59
2019-02-11T09:07:58.899Z,980.65
2019-02-11T09:08:59.089Z,980.66
2019-02-11T09:09:59.279Z,980.69
2019-02-11T09:10:59.464Z,980.69
2019-02-11T09:11:59.653Z,980.72
2019-02-11T09:12:59.841Z,980.69
2019-02-11T09:14:00.023Z,980.69
2019-02-11T09:15:00.302Z,980.71
2019-02-11T09:16:00.395Z,980.75
2019-02-11T09:17:00.579Z,980.73
2019-02-11T09:18:00.781Z,980.75
2019-02-11T09:19:00.969Z,980.72
2019-02-11T09:20:01.154Z,980.64
2019-02-11T09:21:01.338Z,980.67
2019-02-11T09:22:07.275Z,980.76
2019-02-11T09:23:01.712Z,980.76
2019-02-11T09:24:01.900Z,980.82
2019-02-11T09:25:02.094Z,980.84
2019-02-11T09:26:02.278Z,980.87
2019-02-11T09:27:02.462Z,980.87
2019-02-11T09:28:02.640Z,980.93
2019-02-11T09:29:02.819Z,980.95
2019-02-11T09:30:03.001Z,980.91
2019-02-11T09:31:03.194Z,980.93
2019-02-11T09:32:03.377Z,980.94
2019-02-11T09:33:03.570Z,980.99
2019-02-11T09:34:03.787Z,981.03
2019-02-11T09:35:03.983Z,980.96
2019-02-11T09:36:04.161Z,980.97
2019-02-11T09:37:04.343Z,980.95
2019-02-11T09:38:04.522Z,981.00
2019-02-11T09:39:04.708Z,981.00
2019-02-11T09:40:04.895Z,980.98
2019-02-11T09:41:05.080Z,981.02
2019-02-11T09:42:05.272Z,981.03
2019-02-11T09:43:05.447Z,981.00
2019-02-11T09:44:05.630Z,981.05
2019-02-11T09:45:05.816Z,981.05
2019-02-11T09:46:06.016Z,981.10
2019-02-11T09:47:06.183Z,981.06
2019-02-11T09:48:06.494Z,981.10
2019-02-11T09:49:06.558Z,981.10
2019-02-11T09:50:06.743Z,981.14
2019-02-11T09:51:06.922Z,981.12
2019-02-11T09:52:07.105Z,981.13
2019-02-11T09:53:07.299Z,981.22
2019-02-11T09:54:07.479Z,981.19
2019-02-11T09:55:07.661Z,981.19
2019-02-11T09:56:07.839Z,981.26
2019-02-11T09:57:08.023Z,981.27
2019-02-11T09:58:08.209Z,981.33
2019-02-11T09:59:08.406Z,981.38
2019-02-11T10:00:08.582Z,981.37
2019-02-11T10:01:08.775Z,981.44
2019-02-11T10:02:08.963Z,981.45
2019-02-11T10:03:09.145Z,981.45
2019-02-11T10:04:09.334Z,981.50
2019-02-11T10:05:09.507Z,981.50
2019-02-11T10:06:09.710Z,981.54
2019-02-11T10:07:09.873Z,981.52
2019-02-11T10:08:10.057Z,981.54
2019-02-11T10:09:10.242Z,981.54
2019-02-11T10:10:10.421Z,981.56
2019-02-11T10:11:10.622Z,981.55
2019-02-11T10:12:10.782Z,981.55
2019-02-11T10:13:10.967Z,981.59
2019-02-11T10:14:11.155Z,981.62
2019-02-11T10:15:11.342Z,981.68
2019-02-11T10:16:12.731Z,981.60
2019-02-11T10:17:11.708Z,981.67
2019-02-11T10:18:11.898Z,981.70
2019-02-11T10:19:12.079Z,981.73
2019-02-11T10:20:12.267Z,981.72
2019-02-11T10:21:12.450Z,981.78
2019-02-11T10:22:12.637Z,981.79
2019-02-11T10:23:12.824Z,981.80
2019-02-11T10:24:13.000Z,981.77
2019-02-11T10:25:13.188Z,981.81
2019-02-11T10:26:13.378Z,981.86
2019-02-11T10:27:13.561Z,981.89
2019-02-11T10:28:13.768Z,981.90
2019-02-11T10:29:13.953Z,981.92
2019-02-11T10:30:14.137Z,981.99
2019-02-11T10:31:14.330Z,981.93
2019-02-11T10:32:14.553Z,981.93
2019-02-11T10:33:14.688Z,981.93
2019-02-11T10:35:57.563Z,982.01
2019-02-11T10:36:57.744Z,982.00
2019-02-11T10:37:57.930Z,982.05
2019-02-11T10:38:58.109Z,982.07
2019-02-11T10:39:58.288Z,982.12
2019-02-11T10:40:58.473Z,982.10
2019-02-11T10:41:58.654Z,982.15
2019-02-11T10:42:58.842Z,982.13
2019-02-11T10:43:59.021Z,982.14
2019-02-11T10:44:59.205Z,982.13
2019-02-11T10:45:59.391Z,982.13
2019-02-11T10:46:59.576Z,982.22
2019-02-11T10:47:59.764Z,982.22
2019-02-11T10:48:59.946Z,982.20
2019-02-11T10:50:00.240Z,982.24
2019-02-11T10:51:00.313Z,982.28
2019-02-11T10:52:00.493Z,982.24
2019-02-11T10:53:00.675Z,982.28
2019-02-11T10:54:00.861Z,982.32
2019-02-11T10:55:01.032Z,982.26
2019-02-11T10:56:01.211Z,982.27
2019-02-11T10:57:01.402Z,982.21
2019-02-11T10:58:01.583Z,982.30
2019-02-11T10:59:01.771Z,982.24
2019-02-11T11:00:01.948Z,982.36
2019-02-11T11:01:02.133Z,982.33
2019-02-11T11:02:02.324Z,982.31
2019-02-11T11:03:02.501Z,982.33
2019-02-11T11:04:02.682Z,982.29
2019-02-11T11:05:02.861Z,982.32
2019-02-11T11:06:03.050Z,982.31
2019-02-11T11:07:03.242Z,982.33
2019-02-11T11:08:03.436Z,982.31
2019-02-11T11:09:04.661Z,982.35
2019-02-11T11:10:03.805Z,982.33
2019-02-11T11:11:03.995Z,982.32
2019-02-11T11:12:04.182Z,982.36
2019-02-11T11:13:04.362Z,982.36
2019-02-11T11:14:04.562Z,982.36
2019-02-11T11:15:04.737Z,982.39
2019-02-11T11:16:04.923Z,982.42
2019-02-11T11:17:05.101Z,982.42
2019-02-11T11:18:05.284Z,982.36
2019-02-11T11:19:05.468Z,982.31
2019-02-11T11:20:05.649Z,982.32
2019-02-11T11:21:05.838Z,982.44
2019-02-11T11:22:06.019Z,982.38
2019-02-11T11:23:06.203Z,982.40
2019-02-11T11:24:06.395Z,982.37
2019-02-11T11:25:06.588Z,982.38
2019-02-11T11:26:06.778Z,982.48
2019-02-11T11:27:06.961Z,982.49
2019-02-11T11:28:07.141Z,982.43
2019-02-11T11:29:07.323Z,982.52
2019-02-11T11:30:07.520Z,982.51
2019-02-11T11:31:07.703Z,982.51
2019-02-11T11:32:07.900Z,982.49
2019-02-11T11:33:08.078Z,982.59
2019-02-11T11:34:08.258Z,982.59
2019-02-11T11:35:08.440Z,982.57
2019-02-11T11:36:08.630Z,982.78
2019-02-11T11:37:08.806Z,982.83
2019-02-11T11:38:08.989Z,982.72
2019-02-11T11:39:09.166Z,982.98
2019-02-11T11:40:09.359Z,982.98
2019-02-11T11:41:09.552Z,982.90
2019-02-11T11:42:09.741Z,982.78
2019-02-11T11:43:09.946Z,982.97
2019-02-11T11:44:10.134Z,983.24
2019-02-11T11:45:10.319Z,983.05
2019-02-11T11:46:10.508Z,983.16
2019-02-11T11:47:10.692Z,983.11
2019-02-11T11:48:10.883Z,983.06
2019-02-11T11:49:11.087Z,983.08
2019-02-11T11:50:11.283Z,983.03
2019-02-11T11:51:11.482Z,983.12
2019-02-11T11:52:11.659Z,983.07
2019-02-11T11:53:11.842Z,983.09
2019-02-11T11:54:12.035Z,983.08
2019-02-11T11:55:12.224Z,983.01
2019-02-11T11:56:12.418Z,982.88
2019-02-11T11:57:12.612Z,983.05
2019-02-11T11:58:12.815Z,983.03
2019-02-11T11:59:12.982Z,983.08
2019-02-11T12:00:13.166Z,983.07
2019-02-11T12:01:13.357Z,983.13
2019-02-11T12:02:16.169Z,983.06
2019-02-11T12:03:13.742Z,983.20
2019-02-11T12:04:13.925Z,983.20
2019-02-11T12:05:14.134Z,983.25
2019-02-11T12:06:14.293Z,983.21
2019-02-11T12:07:14.486Z,983.20
2019-02-11T12:08:14.679Z,983.14
2019-02-11T12:09:14.883Z,983.20
2019-02-11T12:10:15.082Z,983.23
2019-02-11T12:11:15.303Z,983.18
2019-02-11T12:12:15.429Z,983.32
2019-02-11T12:13:22.481Z,983.32
2019-02-11T12:14:15.789Z,983.31
2019-02-11T12:15:15.993Z,983.36
2019-02-11T12:16:16.175Z,983.32
2019-02-11T12:17:16.356Z,983.44
2019-02-11T12:18:16.546Z,983.40
2019-02-11T12:19:16.722Z,983.46
2019-02-11T12:20:16.926Z,983.51
2019-02-11T12:21:17.109Z,983.54
2019-02-11T12:22:17.280Z,983.55
2019-02-11T12:23:17.473Z,983.47
2019-02-11T12:24:17.650Z,983.55
2019-02-11T12:25:17.853Z,983.58
2019-02-11T12:26:21.290Z,983.55
2019-02-11T12:27:18.211Z,983.63
2019-02-11T12:28:18.399Z,983.57
2019-02-11T12:29:18.585Z,983.59
2019-02-11T12:30:18.776Z,983.60
2019-02-11T12:31:18.990Z,983.68
2019-02-11T12:32:19.191Z,983.62